Time;durP1;ratioP1;P1;durP2;ratioP2;P2;SDS_P1;SDS_P2;PMS_P1;PMS_P2;Temp;Humidity;BMP_temperature;BMP_pressure;BME280_temperature;BME280_humidity;BME280_pressure;Samples;Min_cycle;Max_cycle;Signal;HPM_P1;HPM_P2
2021/06/25 00:00:33;;;;;;;12.57;9.88;;;12.20;99.90;;;;;;5079064;28;20028;-75
2021/06/25 00:02:58;;;;;;;17.70;10.52;;;12.10;99.90;;;;;;5101572;28;20381;-75
2021/06/25 00:05:24;;;;;;;13.02;9.57;;;12.00;99.90;;;;;;5098094;28;20103;-75
2021/06/25 00:07:49;;;;;;;14.75;10.15;;;12.00;99.90;;;;;;5078072;28;20039;-75
2021/06/25 00:10:15;;;;;;;15.40;10.10;;;12.00;99.90;;;;;;5091764;28;20032;-75
2021/06/25 00:12:41;;;;;;;14.95;9.73;;;11.90;99.90;;;;;;5093382;28;20024;-74
2021/06/25 00:15:08;;;;;;;14.30;9.52;;;11.90;99.90;;;;;;5093865;28;20387;-75
2021/06/25 00:17:34;;;;;;;17.27;10.02;;;11.90;99.90;;;;;;5092490;28;20028;-75
2021/06/25 00:20:00;;;;;;;14.00;9.68;;;11.90;99.90;;;;;;5085693;28;20051;-75
2021/06/25 00:22:26;;;;;;;15.65;9.90;;;11.80;99.90;;;;;;5074909;28;20025;-75
2021/06/25 00:24:52;;;;;;;18.75;11.65;;;11.80;99.90;;;;;;5096487;28;20028;-74
2021/06/25 00:27:18;;;;;;;13.80;9.98;;;11.80;99.90;;;;;;5093369;28;20062;-74
2021/06/25 00:29:43;;;;;;;14.63;9.77;;;11.90;99.90;;;;;;5096751;28;20458;-76
2021/06/25 00:32:09;;;;;;;17.35;11.00;;;11.90;99.90;;;;;;5088582;28;20021;-76
2021/06/25 00:34:34;;;;;;;13.63;9.55;;;11.90;99.90;;;;;;5103269;28;20030;-76
2021/06/25 00:37:00;;;;;;;15.50;9.80;;;11.80;99.90;;;;;;5095516;28;20025;-75
2021/06/25 00:39:26;;;;;;;16.75;10.30;;;11.80;99.90;;;;;;5101250;28;20028;-76
2021/06/25 00:41:52;;;;;;;13.32;10.07;;;11.70;99.90;;;;;;5086017;28;20127;-75
2021/06/25 00:44:19;;;;;;;12.77;9.45;;;11.80;99.90;;;;;;5093646;28;20083;-76
2021/06/25 00:46:45;;;;;;;13.38;9.57;;;11.80;99.90;;;;;;5090084;28;20088;-77
2021/06/25 00:49:13;;;;;;;12.70;9.25;;;11.90;99.90;;;;;;5082617;28;20450;-76
2021/06/25 00:51:39;;;;;;;14.98;11.13;;;11.90;99.90;;;;;;5082156;28;20021;-76
2021/06/25 00:54:10;;;;;;;15.00;10.25;;;11.80;99.90;;;;;;5095477;28;20016;-75
2021/06/25 00:56:37;;;;;;;18.30;11.38;;;11.80;99.90;;;;;;5095481;28;20472;-75
2021/06/25 00:59:03;;;;;;;14.40;9.73;;;11.80;99.90;;;;;;5110930;28;20484;-75
2021/06/25 01:01:29;;;;;;;16.98;11.20;;;11.80;99.90;;;;;;5118405;28;20027;-76
2021/06/25 01:03:54;;;;;;;24.33;11.00;;;11.80;99.90;;;;;;5112679;28;20031;-74
2021/06/25 01:06:20;;;;;;;16.70;9.90;;;11.80;99.90;;;;;;5107835;28;20051;-74
2021/06/25 01:08:46;;;;;;;15.85;9.88;;;11.80;99.90;;;;;;5103241;28;20439;-75
2021/06/25 01:11:12;;;;;;;17.48;11.15;;;11.80;99.90;;;;;;5117817;28;20050;-75
2021/06/25 01:13:38;;;;;;;15.10;10.65;;;11.80;99.90;;;;;;5096082;27;20089;-74
2021/06/25 01:16:08;;;;;;;17.77;11.25;;;11.80;99.90;;;;;;5096340;28;20052;-74
2021/06/25 01:18:34;;;;;;;19.90;11.35;;;11.80;99.90;;;;;;5096263;28;20032;-74
2021/06/25 01:21:01;;;;;;;17.80;11.52;;;11.80;99.90;;;;;;5114370;28;20031;-75
2021/06/25 01:23:27;;;;;;;18.27;12.18;;;11.80;99.90;;;;;;5113774;28;20038;-74
2021/06/25 01:25:56;;;;;;;17.23;11.00;;;11.80;99.90;;;;;;5105668;28;20106;-74
2021/06/25 01:28:21;;;;;;;17.15;11.45;;;11.80;99.90;;;;;;5112588;28;20119;-74
2021/06/25 01:30:49;;;;;;;20.33;11.00;;;11.80;99.90;;;;;;5114781;28;20539;-74
2021/06/25 01:33:19;;;;;;;19.83;12.27;;;11.80;99.90;;;;;;5116292;28;20059;-75
2021/06/25 01:35:45;;;;;;;18.20;11.57;;;11.80;99.90;;;;;;5096181;28;20024;-75
2021/06/25 01:38:12;;;;;;;15.65;11.25;;;11.80;99.90;;;;;;5096791;28;20020;-75
2021/06/25 01:40:39;;;;;;;17.85;12.82;;;11.90;99.90;;;;;;5096036;28;20035;-75
2021/06/25 01:43:06;;;;;;;19.80;12.32;;;11.90;99.90;;;;;;5096468;28;20157;-75
2021/06/25 01:45:34;;;;;;;16.95;11.90;;;11.90;99.90;;;;;;5106889;27;20028;-76
2021/06/25 01:48:00;;;;;;;16.52;11.45;;;12.00;99.90;;;;;;5095379;28;20031;-74
2021/06/25 01:50:29;;;;;;;25.33;12.85;;;12.00;99.90;;;;;;5094423;28;20109;-75
2021/06/25 01:53:02;;;;;;;17.05;11.90;;;12.10;99.90;;;;;;5095275;28;20020;-75
2021/06/25 01:55:29;;;;;;;19.33;11.80;;;12.10;99.90;;;;;;5097892;28;20036;-75
2021/06/25 01:57:55;;;;;;;16.40;11.20;;;12.10;99.90;;;;;;5107518;28;20027;-75
2021/06/25 02:00:21;;;;;;;22.13;13.15;;;12.10;99.90;;;;;;5097910;28;20032;-75
2021/06/25 02:02:47;;;;;;;18.23;11.93;;;12.10;99.90;;;;;;5115722;28;20036;-75
2021/06/25 02:05:14;;;;;;;18.25;12.07;;;12.20;99.90;;;;;;5108091;28;20020;-75
2021/06/25 02:07:40;;;;;;;17.70;11.60;;;12.20;99.90;;;;;;5096520;28;20028;-76
2021/06/25 02:10:09;;;;;;;21.63;11.82;;;12.20;99.90;;;;;;5094002;28;20396;-75
2021/06/25 02:12:36;;;;;;;15.40;10.65;;;12.20;99.90;;;;;;5102198;28;20031;-75
2021/06/25 02:15:04;;;;;;;19.03;12.47;;;12.30;99.90;;;;;;5104070;27;20020;-75
2021/06/25 02:17:29;;;;;;;19.75;11.68;;;12.30;99.90;;;;;;5093676;28;20039;-76
2021/06/25 02:19:55;;;;;;;18.38;12.48;;;12.30;99.90;;;;;;5093792;28;20032;-75
2021/06/25 02:22:20;;;;;;;21.52;12.82;;;12.30;99.90;;;;;;5095059;28;20073;-74
2021/06/25 02:24:46;;;;;;;19.02;12.48;;;12.40;99.90;;;;;;5103871;28;20031;-75
2021/06/25 02:27:12;;;;;;;17.67;12.07;;;12.50;99.90;;;;;;5115156;28;20023;-75
2021/06/25 02:29:37;;;;;;;18.60;11.82;;;12.50;99.90;;;;;;5103629;28;20035;-75
2021/06/25 02:32:04;;;;;;;20.27;13.25;;;12.50;99.90;;;;;;5095288;28;20462;-75
2021/06/25 02:34:29;;;;;;;21.55;12.95;;;12.50;99.90;;;;;;5103556;28;20032;-75
2021/06/25 02:36:55;;;;;;;20.83;12.85;;;12.60;99.90;;;;;;5094581;28;20074;-75
2021/06/25 02:39:20;;;;;;;23.98;13.13;;;12.60;99.90;;;;;;5094088;28;20054;-75
2021/06/25 02:41:46;;;;;;;18.02;12.55;;;12.70;99.90;;;;;;5093375;28;20020;-75
2021/06/25 02:44:12;;;;;;;18.77;13.30;;;12.70;99.90;;;;;;5097947;28;20352;-75
2021/06/25 02:46:38;;;;;;;25.90;13.80;;;12.70;99.90;;;;;;5102311;28;20181;-75
2021/06/25 02:49:04;;;;;;;24.10;13.15;;;12.80;99.90;;;;;;5106851;28;20115;-75
2021/06/25 02:51:30;;;;;;;20.77;13.48;;;12.90;99.90;;;;;;5092634;28;20036;-75
2021/06/25 02:53:55;;;;;;;20.40;12.55;;;12.90;99.90;;;;;;5107366;28;20023;-74
2021/06/25 02:56:21;;;;;;;19.88;12.43;;;12.90;99.90;;;;;;5108043;28;20073;-75
2021/06/25 02:58:47;;;;;;;20.30;12.82;;;13.00;99.90;;;;;;5108732;28;20012;-75
2021/06/25 03:01:12;;;;;;;21.42;12.10;;;13.00;99.90;;;;;;5092345;28;20065;-75
2021/06/25 03:03:38;;;;;;;16.95;12.23;;;13.10;99.90;;;;;;5098428;28;20387;-75
2021/06/25 03:06:04;;;;;;;19.38;12.85;;;13.10;99.90;;;;;;5104265;28;20126;-75
2021/06/25 03:08:29;;;;;;;23.48;11.95;;;13.10;99.90;;;;;;5106644;28;20032;-75
2021/06/25 03:10:55;;;;;;;16.63;11.23;;;13.20;99.90;;;;;;5093638;28;20028;-75
2021/06/25 03:13:22;;;;;;;18.98;11.88;;;13.20;99.90;;;;;;5094143;28;20024;-74
2021/06/25 03:15:48;;;;;;;22.48;12.43;;;13.30;99.90;;;;;;5102977;28;20074;-75
2021/06/25 03:18:16;;;;;;;16.85;12.20;;;13.30;99.90;;;;;;5113607;28;20381;-75
2021/06/25 03:20:41;;;;;;;18.42;12.40;;;13.30;99.90;;;;;;5101892;28;20031;-75
2021/06/25 03:23:08;;;;;;;17.90;11.73;;;13.30;99.90;;;;;;5092422;28;20032;-75
2021/06/25 03:25:34;;;;;;;20.92;11.95;;;13.30;99.90;;;;;;5100169;28;20087;-75
2021/06/25 03:28:00;;;;;;;19.27;11.90;;;13.40;99.90;;;;;;5110525;28;20055;-75
2021/06/25 03:30:26;;;;;;;16.75;11.48;;;13.40;99.90;;;;;;5084796;28;20025;-74
2021/06/25 03:32:51;;;;;;;18.25;11.65;;;13.50;99.90;;;;;;5074072;28;20052;-74
2021/06/25 03:35:17;;;;;;;18.17;11.98;;;13.50;99.90;;;;;;5074372;28;20021;-74
2021/06/25 03:37:43;;;;;;;20.73;12.85;;;13.50;99.90;;;;;;5078408;28;20091;-76
2021/06/25 03:40:11;;;;;;;19.27;12.88;;;13.50;99.90;;;;;;5082817;28;20078;-74
2021/06/25 03:42:38;;;;;;;19.80;12.43;;;13.60;99.90;;;;;;5092271;28;20031;-75
2021/06/25 03:45:06;;;;;;;20.83;12.13;;;13.70;99.90;;;;;;5091044;28;20016;-75
2021/06/25 03:47:32;;;;;;;15.98;11.43;;;13.60;99.90;;;;;;5072709;28;20036;-75
2021/06/25 03:49:58;;;;;;;21.25;11.75;;;13.70;99.90;;;;;;5088072;28;20035;-74
2021/06/25 03:52:23;;;;;;;16.42;10.50;;;13.70;99.90;;;;;;5093044;28;20031;-74
2021/06/25 03:54:49;;;;;;;19.27;11.50;;;13.70;99.90;;;;;;5092281;28;20099;-74
2021/06/25 03:57:15;;;;;;;17.33;11.25;;;13.70;99.90;;;;;;5092620;28;20024;-75
2021/06/25 03:59:40;;;;;;;18.65;10.88;;;13.70;99.90;;;;;;5089795;28;20024;-74
2021/06/25 04:02:09;;;;;;;16.60;11.05;;;13.80;99.90;;;;;;5075110;28;20483;-74
2021/06/25 04:04:39;;;;;;;17.08;12.02;;;13.80;99.90;;;;;;5085811;28;20040;-74
2021/06/25 04:07:06;;;;;;;15.23;10.65;;;13.80;99.90;;;;;;5097235;28;20025;-74
2021/06/25 04:09:32;;;;;;;16.08;10.65;;;13.90;99.90;;;;;;5092799;28;20028;-74
2021/06/25 04:11:58;;;;;;;18.27;10.75;;;13.90;99.90;;;;;;5077469;28;20028;-76
2021/06/25 04:14:23;;;;;;;16.15;10.82;;;13.90;99.90;;;;;;5087785;28;20029;-76
2021/06/25 04:16:49;;;;;;;15.07;10.20;;;13.90;99.90;;;;;;5083762;28;20043;-76
2021/06/25 04:19:15;;;;;;;15.20;10.55;;;13.90;99.90;;;;;;5089598;28;20032;-77
2021/06/25 04:21:40;;;;;;;21.95;11.02;;;14.00;99.90;;;;;;5105056;28;20065;-76
2021/06/25 04:24:06;;;;;;;20.48;11.18;;;14.00;99.90;;;;;;5101660;28;20021;-76
2021/06/25 04:26:32;;;;;;;21.10;10.93;;;14.00;99.90;;;;;;5086599;28;20055;-75
2021/06/25 04:28:58;;;;;;;17.60;10.60;;;14.00;99.90;;;;;;5103227;28;20122;-76
2021/06/25 04:31:23;;;;;;;16.98;11.60;;;14.10;99.90;;;;;;5087871;28;20076;-76
2021/06/25 04:33:49;;;;;;;18.38;11.75;;;14.00;99.90;;;;;;5088857;28;20472;-75
2021/06/25 04:36:15;;;;;;;19.52;11.20;;;14.00;99.90;;;;;;5090280;28;20024;-76
2021/06/25 04:38:41;;;;;;;17.75;10.65;;;14.00;99.90;;;;;;5090940;28;20028;-76
2021/06/25 04:41:06;;;;;;;15.40;10.70;;;14.00;99.90;;;;;;5084169;28;20059;-75
2021/06/25 04:43:32;;;;;;;18.75;11.02;;;14.10;99.90;;;;;;5096654;28;20533;-75
2021/06/25 04:45:59;;;;;;;20.65;11.15;;;14.10;99.90;;;;;;5085402;28;20393;-76
2021/06/25 04:48:26;;;;;;;23.40;11.87;;;14.10;99.90;;;;;;5100076;28;20032;-75
2021/06/25 04:50:52;;;;;;;18.67;11.88;;;14.10;99.90;;;;;;5085130;28;20098;-75
2021/06/25 04:53:17;;;;;;;16.77;11.38;;;14.10;99.90;;;;;;5099899;28;20387;-76
2021/06/25 04:55:45;;;;;;;23.75;12.73;;;14.10;99.90;;;;;;5099870;28;20022;-76
2021/06/25 04:58:12;;;;;;;18.63;12.60;;;14.20;99.90;;;;;;5089375;28;20042;-75
2021/06/25 05:00:40;;;;;;;18.70;12.57;;;14.20;99.90;;;;;;5091676;28;20063;-75
2021/06/25 05:03:06;;;;;;;21.48;12.50;;;14.10;99.90;;;;;;5083258;28;20032;-75
2021/06/25 05:05:33;;;;;;;21.58;13.48;;;14.20;99.90;;;;;;5097353;28;20028;-75
2021/06/25 05:07:59;;;;;;;25.75;13.98;;;14.20;99.90;;;;;;5087055;28;20031;-75
2021/06/25 05:10:25;;;;;;;18.83;12.35;;;14.20;99.90;;;;;;5096972;28;20411;-76
2021/06/25 05:12:51;;;;;;;20.42;12.23;;;14.20;99.90;;;;;;5096857;28;20044;-75
2021/06/25 05:15:16;;;;;;;22.88;14.10;;;14.20;99.90;;;;;;5097248;28;20118;-75
2021/06/25 05:17:42;;;;;;;22.55;13.55;;;14.20;99.90;;;;;;5095207;28;20019;-74
2021/06/25 05:20:08;;;;;;;21.42;13.23;;;14.30;99.90;;;;;;5096427;28;20051;-75
2021/06/25 05:22:34;;;;;;;22.90;12.63;;;14.30;99.90;;;;;;5096203;28;20434;-76
2021/06/25 05:25:00;;;;;;;22.38;13.13;;;14.30;99.90;;;;;;5092286;28;20028;-75
2021/06/25 05:27:26;;;;;;;24.02;13.55;;;14.40;99.90;;;;;;5094871;28;20028;-75
2021/06/25 05:29:52;;;;;;;23.15;13.30;;;14.40;99.90;;;;;;5093727;28;20098;-75
2021/06/25 05:32:18;;;;;;;24.65;14.25;;;14.50;99.90;;;;;;5094084;28;20038;-75
2021/06/25 05:34:45;;;;;;;21.80;13.35;;;14.50;99.90;;;;;;5093610;28;20149;-75
2021/06/25 05:37:11;;;;;;;21.55;13.52;;;14.50;99.90;;;;;;5094907;28;20016;-75
2021/06/25 05:39:36;;;;;;;25.65;15.00;;;14.60;99.90;;;;;;5092903;28;20027;-75
2021/06/25 05:42:02;;;;;;;28.88;14.02;;;14.60;99.90;;;;;;5093382;28;20418;-74
2021/06/25 05:44:28;;;;;;;20.35;14.15;;;14.60;99.90;;;;;;5093237;28;20426;-75
2021/06/25 05:46:53;;;;;;;20.65;13.18;;;14.70;99.90;;;;;;5094736;28;20081;-75
2021/06/25 05:49:19;;;;;;;22.52;13.63;;;14.70;99.90;;;;;;5092909;28;20147;-75
2021/06/25 05:51:45;;;;;;;20.30;12.75;;;14.80;99.90;;;;;;5095182;28;20024;-75
2021/06/25 05:54:10;;;;;;;21.95;12.63;;;14.90;99.90;;;;;;5095843;28;20024;-75
2021/06/25 05:56:36;;;;;;;22.17;13.15;;;15.00;99.90;;;;;;5093509;28;20495;-75
2021/06/25 05:59:01;;;;;;;19.45;12.98;;;15.10;99.90;;;;;;5096757;28;20043;-76
2021/06/25 06:01:29;;;;;;;22.42;13.15;;;15.20;99.90;;;;;;5095145;28;20088;-75
2021/06/25 06:03:55;;;;;;;22.17;13.45;;;15.40;99.90;;;;;;5095099;28;20038;-75
2021/06/25 06:06:21;;;;;;;23.38;12.80;;;15.60;99.90;;;;;;5095972;28;20020;-75
2021/06/25 06:08:46;;;;;;;20.70;12.65;;;16.00;99.90;;;;;;5095380;28;20078;-75
2021/06/25 06:11:12;;;;;;;24.65;12.80;;;16.40;99.90;;;;;;5096047;28;20028;-75
2021/06/25 06:13:37;;;;;;;23.20;13.73;;;17.00;99.90;;;;;;5093735;28;20025;-75
2021/06/25 06:16:03;;;;;;;26.13;15.10;;;17.60;99.90;;;;;;5093684;28;20119;-75
2021/06/25 06:18:39;;;;;;;24.45;14.25;;;17.60;99.90;;;;;;5096777;28;20434;-75
2021/06/25 06:21:05;;;;;;;29.60;14.75;;;17.40;99.90;;;;;;5092722;28;20024;-76
2021/06/25 06:31:51;;;;;;;29.80;15.55;;;16.80;99.90;;;;;;5093764;28;20077;-75
2021/06/25 06:34:17;;;;;;;27.98;13.73;;;16.80;99.90;;;;;;5092912;28;20043;-75
2021/06/25 06:36:45;;;;;;;23.88;14.25;;;16.80;99.90;;;;;;5110063;28;20016;-75
2021/06/25 06:39:11;;;;;;;27.10;15.23;;;16.80;99.90;;;;;;5093904;28;20077;-75
2021/06/25 06:41:37;;;;;;;25.08;16.25;;;16.70;99.90;;;;;;5093835;28;20036;-75
2021/06/25 06:44:03;;;;;;;29.30;15.07;;;16.80;99.90;;;;;;5094246;28;20525;-76
2021/06/25 06:46:30;;;;;;;29.17;16.40;;;16.80;99.90;;;;;;5095810;28;20036;-76
2021/06/25 06:48:56;;;;;;;33.45;16.95;;;16.70;99.90;;;;;;5094671;28;20114;-75
2021/06/25 06:51:21;;;;;;;33.10;16.60;;;16.70;99.90;;;;;;5093876;28;20130;-75
2021/06/25 06:53:48;;;;;;;28.70;16.00;;;16.60;99.90;;;;;;5107350;28;20024;-74
2021/06/25 06:56:17;;;;;;;35.28;18.25;;;16.60;99.90;;;;;;5100965;28;20047;-76
2021/06/25 06:58:43;;;;;;;32.22;16.63;;;16.60;99.90;;;;;;5092375;28;20028;-75
2021/06/25 07:01:09;;;;;;;30.67;17.33;;;16.60;99.90;;;;;;5090660;28;20107;-75
2021/06/25 07:03:35;;;;;;;26.27;15.30;;;16.60;99.90;;;;;;5101404;28;20035;-75
2021/06/25 07:06:01;;;;;;;33.75;17.55;;;16.60;99.90;;;;;;5095793;28;20016;-75
2021/06/25 07:08:27;;;;;;;31.77;17.23;;;16.60;99.90;;;;;;5095125;28;20028;-75
2021/06/25 07:10:53;;;;;;;30.05;17.38;;;16.60;99.90;;;;;;5092995;28;20043;-76
2021/06/25 07:13:18;;;;;;;28.27;17.42;;;16.60;99.90;;;;;;5085883;28;20056;-76
2021/06/25 07:15:44;;;;;;;33.92;17.77;;;16.60;99.90;;;;;;5100418;28;20027;-76
2021/06/25 07:18:10;;;;;;;28.73;17.33;;;16.60;99.90;;;;;;5113633;28;20168;-76
2021/06/25 07:20:36;;;;;;;33.53;19.60;;;16.60;99.90;;;;;;5094190;28;20027;-76
2021/06/25 07:23:03;;;;;;;37.97;19.17;;;16.60;99.90;;;;;;5092968;28;20551;-76
2021/06/25 07:25:29;;;;;;;35.28;18.38;;;16.60;99.90;;;;;;5094350;28;20028;-76
2021/06/25 07:27:55;;;;;;;29.60;16.80;;;16.70;99.90;;;;;;5094316;28;20043;-76
2021/06/25 07:30:21;;;;;;;30.98;18.20;;;16.70;99.90;;;;;;5088444;28;20397;-74
2021/06/25 07:32:47;;;;;;;33.33;19.00;;;16.70;99.90;;;;;;5073800;28;20040;-76
2021/06/25 07:35:13;;;;;;;33.78;19.40;;;16.80;99.90;;;;;;5073729;28;20035;-76
2021/06/25 07:37:39;;;;;;;30.60;18.10;;;16.80;99.90;;;;;;5073809;28;20028;-76
2021/06/25 07:40:06;;;;;;;32.70;18.13;;;16.80;99.90;;;;;;5073894;28;20485;-76
2021/06/25 07:42:31;;;;;;;34.78;17.15;;;16.80;99.90;;;;;;5073769;28;20032;-76
2021/06/25 07:44:59;;;;;;;30.75;17.70;;;16.80;99.90;;;;;;5074080;28;20115;-76
2021/06/25 07:47:24;;;;;;;40.03;19.75;;;16.80;99.90;;;;;;5076273;28;20034;-76
2021/06/25 07:49:52;;;;;;;31.70;19.00;;;16.80;99.90;;;;;;5094252;28;20391;-75
2021/06/25 07:52:18;;;;;;;30.85;18.05;;;16.80;99.90;;;;;;5093156;28;20131;-74
2021/06/25 07:54:43;;;;;;;34.00;19.85;;;16.80;99.90;;;;;;5092568;28;20064;-75
2021/06/25 07:57:09;;;;;;;43.85;20.67;;;16.80;99.90;;;;;;5092741;28;20020;-75
2021/06/25 07:59:34;;;;;;;33.35;19.02;;;16.80;99.90;;;;;;5094132;28;20480;-74
2021/06/25 08:02:00;;;;;;;37.58;20.02;;;16.90;99.90;;;;;;5093852;28;20039;-75
2021/06/25 08:04:28;;;;;;;31.90;17.50;;;17.00;99.90;;;;;;5092040;28;20065;-76
2021/06/25 08:06:54;;;;;;;34.28;18.42;;;17.10;99.90;;;;;;5094994;28;20024;-75
2021/06/25 08:09:20;;;;;;;32.03;17.05;;;17.20;99.90;;;;;;5098393;28;20032;-75
2021/06/25 08:11:46;;;;;;;29.13;18.08;;;17.40;99.90;;;;;;5102753;28;20019;-73
2021/06/25 08:14:12;;;;;;;29.38;18.20;;;17.60;99.90;;;;;;5096721;28;20015;-74
2021/06/25 08:16:37;;;;;;;34.03;18.48;;;17.80;99.90;;;;;;5099349;28;20044;-75
2021/06/25 08:19:03;;;;;;;33.85;17.83;;;18.10;99.90;;;;;;5097242;28;20086;-74
2021/06/25 08:21:30;;;;;;;37.50;19.13;;;18.20;99.90;;;;;;5095848;28;20019;-74
2021/06/25 08:23:56;;;;;;;28.30;16.08;;;18.40;99.90;;;;;;5097027;28;20036;-74
2021/06/25 08:26:22;;;;;;;29.35;17.13;;;18.60;99.90;;;;;;5096507;28;20123;-76
2021/06/25 08:28:48;;;;;;;30.73;17.33;;;19.00;99.90;;;;;;5099800;28;20024;-75
2021/06/25 08:31:15;;;;;;;29.80;17.88;;;19.40;99.90;;;;;;5109936;28;20016;-75
2021/06/25 08:33:41;;;;;;;27.90;16.70;;;19.60;99.90;;;;;;5105741;28;20487;-75
2021/06/25 08:36:08;;;;;;;32.65;16.63;;;19.60;99.90;;;;;;5121977;28;20027;-75
2021/06/25 08:38:33;;;;;;;28.73;17.33;;;19.50;99.90;;;;;;5119974;28;20028;-76
2021/06/25 08:40:59;;;;;;;26.05;17.15;;;19.50;99.90;;;;;;5121361;28;20058;-76
2021/06/25 08:43:26;;;;;;;35.92;18.15;;;19.50;99.90;;;;;;5110100;28;20115;-76
2021/06/25 08:45:52;;;;;;;36.38;18.75;;;19.40;99.90;;;;;;5102261;28;20021;-76
2021/06/25 08:48:18;;;;;;;27.40;17.27;;;19.40;99.90;;;;;;5103071;28;20069;-76
2021/06/25 08:50:49;;;;;;;31.38;17.35;;;19.40;99.90;;;;;;5099730;28;20031;-76
2021/06/25 08:53:15;;;;;;;35.70;18.00;;;19.50;99.90;;;;;;5109672;28;20022;-76
2021/06/25 08:55:44;;;;;;;28.83;17.25;;;19.70;99.90;;;;;;5112778;28;20052;-75
2021/06/25 08:58:21;;;;;;;30.23;17.50;;;19.80;99.90;;;;;;5094900;28;20020;-75
2021/06/25 09:00:48;;;;;;;34.20;18.70;;;20.10;99.90;;;;;;5098351;28;20028;-75
2021/06/25 09:03:21;;;;;;;27.63;16.73;;;20.30;99.90;;;;;;5098381;28;20028;-77
2021/06/25 09:05:47;;;;;;;23.90;16.02;;;20.50;99.90;;;;;;5099556;28;20380;-75
2021/06/25 09:08:30;;;;;;;33.97;17.65;;;20.70;99.90;;;;;;5097792;28;20028;-76
2021/06/25 09:11:01;;;;;;;24.45;15.38;;;20.70;99.90;;;;;;5105791;28;20032;-74
2021/06/25 09:13:36;;;;;;;30.70;17.33;;;20.70;99.90;;;;;;5098520;28;20100;-75
2021/06/25 09:16:20;;;;;;;30.10;18.63;;;20.80;99.90;;;;;;5100939;28;20085;-75
2021/06/25 09:19:16;;;;;;;29.00;16.60;;;21.00;99.90;;;;;;5099502;28;20020;-74
2021/06/25 09:21:57;;;;;;;31.27;17.07;;;21.10;99.90;;;;;;5117550;28;20044;-75
2021/06/25 09:24:25;;;;;;;27.85;15.85;;;21.40;99.90;;;;;;5118749;28;20040;-76
2021/06/25 09:26:58;;;;;;;27.27;14.75;;;21.70;99.90;;;;;;5192834;22;20049;-77
2021/06/25 09:29:29;;;;;;;29.40;16.27;;;22.00;99.90;;;;;;5072036;28;20393;-75
2021/06/25 09:32:00;;;;;;;26.23;16.15;;;22.10;99.90;;;;;;5057932;28;20052;-77
2021/06/25 09:34:39;;;;;;;31.70;15.95;;;22.00;99.90;;;;;;5037121;28;20025;-75
2021/06/25 09:37:07;;;;;;;30.98;15.50;;;22.10;99.90;;;;;;5053076;28;20061;-75
2021/06/25 09:39:33;;;;;;;23.40;14.85;;;22.00;99.90;;;;;;5045212;28;20111;-74
2021/06/25 09:41:59;;;;;;;28.20;15.43;;;21.90;99.90;;;;;;5037780;28;20026;-75
2021/06/25 09:44:25;;;;;;;25.67;14.95;;;21.80;99.90;;;;;;5037578;28;20025;-74
2021/06/25 09:46:52;;;;;;;33.08;17.08;;;21.50;99.90;;;;;;5046029;28;20028;-75
2021/06/25 09:49:28;;;;;;;31.80;16.15;;;21.40;99.90;;;;;;5055922;28;20029;-75
2021/06/25 09:52:04;;;;;;;28.70;15.60;;;21.40;99.90;;;;;;5072924;28;20049;-75
2021/06/25 09:54:30;;;;;;;30.77;15.77;;;21.30;99.90;;;;;;5076156;28;20021;-75
2021/06/25 10:02:18;;;;;;;28.23;15.70;;;21.20;99.90;;;;;;5055499;28;20036;-75
2021/06/25 10:04:45;;;;;;;28.23;16.50;;;21.20;99.90;;;;;;5055477;28;20033;-77
2021/06/25 10:07:28;;;;;;;26.75;15.05;;;21.30;99.90;;;;;;5055957;28;20021;-76
2021/06/25 10:10:06;;;;;;;27.33;14.35;;;21.30;99.90;;;;;;5055264;28;20071;-76
2021/06/25 10:12:36;;;;;;;27.50;15.77;;;21.40;99.90;;;;;;5054195;28;20083;-76
2021/06/25 10:15:03;;;;;;;25.00;14.75;;;21.40;99.90;;;;;;5055532;28;20477;-76
2021/06/25 10:17:28;;;;;;;25.83;16.85;;;21.30;99.90;;;;;;5053849;28;20017;-76
2021/06/25 10:20:08;;;;;;;26.35;16.85;;;21.30;99.90;;;;;;5055232;28;20040;-74
2021/06/25 10:22:35;;;;;;;28.45;16.80;;;21.30;99.90;;;;;;5048500;28;20029;-75
2021/06/25 10:25:03;;;;;;;28.00;16.63;;;21.30;99.90;;;;;;5054235;28;20078;-75
2021/06/25 10:27:29;;;;;;;26.08;16.23;;;21.20;99.90;;;;;;5054023;28;20761;-75
2021/06/25 10:29:57;;;;;;;24.40;17.40;;;21.10;99.90;;;;;;5053193;28;20052;-74
2021/06/25 10:32:22;;;;;;;35.75;16.83;;;21.00;99.90;;;;;;5054003;28;20013;-75
2021/06/25 10:34:48;;;;;;;26.65;16.75;;;20.90;99.90;;;;;;5052586;28;20066;-75
2021/06/25 10:37:20;;;;;;;21.08;14.60;;;20.80;99.90;;;;;;5035036;28;20018;-75
2021/06/25 10:39:45;;;;;;;24.25;16.13;;;20.80;99.90;;;;;;5034189;28;20064;-75
2021/06/25 10:42:11;;;;;;;28.75;15.93;;;20.80;99.90;;;;;;5033234;28;20033;-76
2021/06/25 10:44:54;;;;;;;34.97;16.48;;;20.80;99.90;;;;;;5034648;28;20017;-77
2021/06/25 10:47:26;;;;;;;26.15;17.75;;;20.70;99.90;;;;;;5033686;28;20440;-76
2021/06/25 10:50:09;;;;;;;28.55;17.38;;;20.80;99.90;;;;;;5043296;28;20021;-76
2021/06/25 10:52:36;;;;;;;28.25;19.73;;;20.70;99.90;;;;;;5053364;28;20025;-80
2021/06/25 10:55:18;;;;;;;27.23;18.88;;;20.50;99.90;;;;;;5033654;28;20055;-76
2021/06/25 10:57:49;;;;;;;32.25;20.70;;;20.40;99.90;;;;;;5034651;28;20112;-76
2021/06/25 11:00:23;;;;;;;38.17;23.70;;;20.30;99.90;;;;;;5034370;28;20494;-73
2021/06/25 11:02:49;;;;;;;36.95;23.95;;;20.40;99.90;;;;;;5034286;28;20034;-75
2021/06/25 11:05:21;;;;;;;45.60;25.42;;;20.40;99.90;;;;;;5037812;28;20127;-75
2021/06/25 11:07:48;;;;;;;35.67;24.95;;;20.40;99.90;;;;;;5050134;28;20029;-75
2021/06/25 11:10:20;;;;;;;35.22;24.27;;;20.50;99.90;;;;;;5051664;28;20036;-77
2021/06/25 11:12:46;;;;;;;34.65;22.25;;;20.70;99.90;;;;;;5032221;28;20385;-76
2021/06/25 11:15:11;;;;;;;37.00;23.27;;;20.70;99.90;;;;;;5032757;28;20017;-77
2021/06/25 11:17:57;;;;;;;37.45;21.30;;;20.80;99.90;;;;;;5048251;28;20362;-76
2021/06/25 11:20:38;;;;;;;28.75;20.23;;;20.70;99.90;;;;;;5040061;28;20025;-76
2021/06/25 11:23:10;;;;;;;30.83;18.55;;;20.70;99.90;;;;;;5028767;28;20022;-75
2021/06/25 11:25:58;;;;;;;28.65;17.77;;;20.70;99.90;;;;;;5029686;28;20036;-76
2021/06/25 11:28:38;;;;;;;37.75;17.67;;;20.60;99.90;;;;;;5032045;28;20037;-76
2021/06/25 11:31:13;;;;;;;27.77;18.15;;;20.60;99.90;;;;;;5034213;28;20108;-77
2021/06/25 11:33:57;;;;;;;30.10;18.77;;;20.60;99.90;;;;;;5033812;28;20025;-76
2021/06/25 11:36:24;;;;;;;28.92;16.45;;;20.60;99.90;;;;;;5033978;28;20060;-77
2021/06/25 11:38:54;;;;;;;26.83;15.05;;;20.60;99.90;;;;;;5033737;28;20071;-76
2021/06/25 11:41:20;;;;;;;25.08;15.60;;;20.60;99.90;;;;;;5031316;28;20386;-76
2021/06/25 11:43:56;;;;;;;24.77;14.88;;;20.50;99.90;;;;;;5032878;28;20108;-77
2021/06/25 11:46:22;;;;;;;24.67;15.63;;;20.50;99.90;;;;;;5035792;28;20037;-77
2021/06/25 11:48:48;;;;;;;27.05;16.60;;;20.40;99.90;;;;;;5034840;28;20018;-77
2021/06/25 11:51:16;;;;;;;29.83;16.42;;;20.30;99.90;;;;;;5053500;28;20033;-76
2021/06/25 11:53:44;;;;;;;28.30;15.02;;;20.20;99.90;;;;;;5053644;28;20575;-77
2021/06/25 11:56:20;;;;;;;31.17;15.32;;;20.10;99.90;;;;;;5052198;28;20021;-76
2021/06/25 11:59:15;;;;;;;23.53;14.53;;;20.00;99.90;;;;;;5053415;28;20021;-75
2021/06/25 12:02:06;;;;;;;25.75;14.52;;;19.90;99.90;;;;;;5044375;28;20276;-75
2021/06/25 12:04:36;;;;;;;25.05;14.10;;;19.70;99.90;;;;;;5009964;28;20486;-75
2021/06/25 12:07:03;;;;;;;26.63;14.95;;;19.70;99.90;;;;;;5012429;28;20038;-76
2021/06/25 12:09:50;;;;;;;32.60;16.15;;;19.60;99.90;;;;;;5012394;28;20080;-75
2021/06/25 12:12:28;;;;;;;30.38;16.70;;;19.50;99.90;;;;;;5013917;28;20018;-75
2021/06/25 12:15:07;;;;;;;31.27;18.38;;;19.40;99.90;;;;;;5013170;28;20410;-75
2021/06/25 12:17:39;;;;;;;32.47;20.20;;;19.30;99.90;;;;;;5012215;28;20060;-75
2021/06/25 12:20:08;;;;;;;37.47;22.30;;;19.20;99.90;;;;;;5022090;28;20108;-75
2021/06/25 12:22:54;;;;;;;30.20;19.70;;;19.20;99.90;;;;;;5033248;28;20033;-76
2021/06/25 12:25:46;;;;;;;38.15;21.20;;;19.20;99.90;;;;;;5032020;28;20033;-76
2021/06/25 12:28:18;;;;;;;39.85;22.13;;;19.20;99.90;;;;;;5032909;28;20075;-77
2021/06/25 12:30:47;;;;;;;40.72;22.23;;;19.10;99.90;;;;;;5031623;28;20764;-77
2021/06/25 12:33:14;;;;;;;42.03;23.38;;;19.00;99.90;;;;;;5035316;28;20033;-76
2021/06/25 12:35:45;;;;;;;34.15;21.17;;;18.90;99.90;;;;;;5036273;28;20025;-77
2021/06/25 12:38:13;;;;;;;44.72;23.75;;;18.90;99.90;;;;;;5036030;28;20029;-76
2021/06/25 12:40:40;;;;;;;;;;;19.00;99.90;;;;;;5035923;28;20485;-76
2021/06/25 12:43:07;;;;;;;41.80;20.35;;;19.00;99.90;;;;;;5035380;28;19909;-77
2021/06/25 12:45:48;;;;;;;42.88;21.52;;;19.00;99.90;;;;;;5037288;28;20093;-76